Domov               UVHVVR             MKGP            O straneh              
ZDRAVSTVENO VARSTVO RASTLIN
  MREŽA AGROMET. POSTAJ
 ► PROGNOSTIČNA OBVESTILA
AGROMETEOROLOŠKI PODATKI -
ARSO
OBVLADOVANJE TVEGANJ ZARADI
NEUGODNIH VREMENSKIH RAZMER
  ► NARAVNE NESREČE
  ► SUŠA/MOČA
  ► NAMAKANJE
  ► ŽLED (gozdarstvo)
KARTOGRAFSKI PRIKAZI
SPLETNE POVEZAVE
PROJEKTI IN PUBLIKACIJE

AGROMETEOROLOŠKA MREŽA: VREMENSKE POSTAJE IN FENOLOŠKA OPAZOVANJA

Pregled podatkov za lokacijo Maribor - BTŠ, meteorološka postaja 35810

Pregled senzorjev na lokaciji

ID Ime Zadnja
vrednost
Datum
zadnje
spremembe
Tip
senzorja
1721 Temperatura 2 m ( °C) 11,06 °C 17.10.2017 23:30 Generic -40 - +60 °C
1722 Relativna vlaga 2 m (% RH) 99,93 % RH 17.10.2017 23:30 Generic 0 - 100 %
1723 Padavine 0.2 mm (mm) 0 mm 17.10.2017 23:30 Generic 0.2 mm
1724 Omočenost lista (U) 0 U 17.10.2017 23:30 A730WET

Pregled podatkov zadnjih 24 ur

Zap.
št.
Datum in čas Maribor - BTŠ
Omočenost
lista
Padavine
0.2
mm
Relativna
vlaga
2
m
Temperatura
2
m
0 17.10.2017 22:30 0 0 99,93 11,06
1 17.10.2017 22:00 0 0 99,93 9,79
2 17.10.2017 21:30 0 0 99,93 10,04
3 17.10.2017 21:00 0 0 99,93 10,79
4 17.10.2017 20:30 0 0 99,93 11,11
5 17.10.2017 20:00 0 0 99,93 11,21
6 17.10.2017 19:30 0 0 99,9 11,94
7 17.10.2017 19:00 0 0 94,55 12,97
8 17.10.2017 18:30 0 0 87,45 14,04
9 17.10.2017 18:00 0 0 82,03 15,53
10 17.10.2017 17:30 0 0 75,21 17,05
11 17.10.2017 17:00 0 0 69,38 18,32
12 17.10.2017 16:30 0 0 61,81 19,93
13 17.10.2017 16:00 0 0 55,95 21,49
14 17.10.2017 15:30 0 0 50,45 22,64
15 17.10.2017 15:00 0 0 46,42 23,17
16 17.10.2017 14:30 0 0 46,94 23,79
17 17.10.2017 14:00 0 0 47,4 23,35
18 17.10.2017 13:30 0 0 47,47 23,3
19 17.10.2017 13:00 0 0 48,99 23
20 17.10.2017 12:30 0 0 50,57 22,64
21 17.10.2017 12:00 0 0 50,35 22,3
22 17.10.2017 11:30 0 0 51,77 21,47
23 17.10.2017 11:00 0 0 51,58 21,12
24 17.10.2017 10:30 0 0 53,19 20,05
25 17.10.2017 10:00 0 0 60,15 17,73
26 17.10.2017 09:30 0 0 63,13 16,61
27 17.10.2017 09:00 0 0 66,74 15,41
28 17.10.2017 08:30 0 0 71,97 14,11
29 17.10.2017 08:00 0 0 76,51 12,94
30 17.10.2017 07:30 0 0 80,29 11,97
31 17.10.2017 07:00 0 0 83,76 11,33
32 17.10.2017 06:30 0 0 85,03 11,21
33 17.10.2017 06:00 0 0 84,76 11,4
34 17.10.2017 05:30 0 0 84,49 11,77
35 17.10.2017 05:00 0 0 86,89 11,62
36 17.10.2017 04:30 0 0 86,4 11,67
37 17.10.2017 04:00 0 0 86,13 11,92
38 17.10.2017 03:30 0 0 84,79 12,26
39 17.10.2017 03:00 0 0 85,57 12,23
40 17.10.2017 02:30 0 0 86,45 12,21
41 17.10.2017 02:00 0 0 87,55 12,09
42 17.10.2017 01:30 0 0 88,21 12,11
43 17.10.2017 01:00 0 0 90,7 11,89
44 17.10.2017 00:30 0 0 87,57 12,58
© 2011 Ministrstvo za kmetijstvo, gozdarstvo in prehrano. Vse pravice pridržane.